Time,TemperatureF,DewpointF,PressureIn,WindDirection,WindDirectionDegrees,WindSpeedMPH,WindSpeedGustMPH,Humidity,HourlyPrecipIn,Conditions,Clouds,dailyrainin,SoftwareType,DateUTC
2013-01-24 00:03:00,11.0,8.0,-100.00,NNE,20,16.0,21.0,86,-99.99,,,-99.99,,2013-01-24 05:03:00,
2013-01-24 00:12:00,11.0,8.0,-100.00,NNE,20,16.0,21.0,86,-99.99,,,-99.99,,2013-01-24 05:12:00,
2013-01-24 00:22:00,11.0,7.0,-100.00,North,5,15.0,25.0,84,-99.99,,,-99.99,,2013-01-24 05:22:00,
2013-01-24 00:33:00,11.0,7.0,-100.00,North,5,15.0,23.0,83,-99.99,,,-99.99,,2013-01-24 05:33:00,
2013-01-24 00:42:00,11.0,7.0,-100.00,North,5,15.0,23.0,83,-99.99,,,-99.99,,2013-01-24 05:42:00,
2013-01-24 00:52:00,11.0,7.0,-100.00,North,5,14.0,21.0,82,-99.99,,,-99.99,,2013-01-24 05:52:00,
2013-01-24 01:02:00,11.0,5.0,-100.00,North,5,10.0,19.0,78,-99.99,,,-99.99,,2013-01-24 06:02:00,
2013-01-24 01:12:00,11.0,5.0,-100.00,North,5,10.0,19.0,78,-99.99,,,-99.99,,2013-01-24 06:12:00,
2013-01-24 01:22:00,11.0,6.0,-100.00,North,0,14.0,21.0,81,-99.99,,,-99.99,,2013-01-24 06:22:00,
2013-01-24 01:32:00,11.0,7.0,-100.00,North,0,13.0,21.0,85,-99.99,,,-99.99,,2013-01-24 06:32:00,
2013-01-24 01:42:00,11.0,7.0,-100.00,North,0,13.0,21.0,85,-99.99,,,-99.99,,2013-01-24 06:42:00,
2013-01-24 01:52:00,11.0,7.0,-100.00,North,5,14.0,20.0,85,-99.99,,,-99.99,,2013-01-24 06:52:00,
2013-01-24 02:03:00,11.0,7.0,-100.00,North,350,13.0,18.0,83,-99.99,,,-99.99,,2013-01-24 07:03:00,
2013-01-24 02:12:00,11.0,7.0,-100.00,North,350,13.0,18.0,83,-99.99,,,-99.99,,2013-01-24 07:12:00,
2013-01-24 02:23:00,11.0,7.0,-100.00,North,0,9.0,17.0,85,-99.99,,,-99.99,,2013-01-24 07:23:00,
2013-01-24 02:33:00,11.0,8.0,-100.00,North,355,11.0,16.0,87,-99.99,,,-99.99,,2013-01-24 07:33:00,
2013-01-24 02:42:00,11.0,8.0,-100.00,North,355,11.0,16.0,87,-99.99,,,-99.99,,2013-01-24 07:42:00,
2013-01-24 02:52:00,11.0,7.0,-100.00,NNW,345,11.0,17.0,86,-99.99,,,-99.99,,2013-01-24 07:52:00,
2013-01-24 03:02:00,11.0,7.0,-100.00,North,0,14.0,21.0,85,-99.99,,,-99.99,,2013-01-24 08:02:00,
2013-01-24 03:12:00,11.0,7.0,-100.00,North,0,14.0,21.0,85,-99.99,,,-99.99,,2013-01-24 08:12:00,
2013-01-24 03:22:00,10.0,7.0,-100.00,North,355,13.0,21.0,85,-99.99,,,-99.99,,2013-01-24 08:22:00,
2013-01-24 03:33:00,11.0,7.0,-100.00,North,350,9.0,17.0,85,-99.99,,,-99.99,,2013-01-24 08:33:00,
2013-01-24 03:43:00,11.0,7.0,-100.00,North,350,9.0,17.0,85,-99.99,,,-99.99,,2013-01-24 08:43:00,
2013-01-24 03:50:00,9.0,5.0,-100.00,NNW,335,6.0,11.0,84,-99.99,,,-99.99,,2013-01-24 08:50:00,
2013-01-24 03:52:00,10.0,6.0,-100.00,North,0,9.0,14.0,83,-99.99,,,-99.99,,2013-01-24 08:52:00,
2013-01-24 04:03:00,10.0,6.0,-100.00,North,355,10.0,16.0,83,-99.99,,,-99.99,,2013-01-24 09:03:00,
2013-01-24 04:13:00,10.0,6.0,-100.00,North,355,10.0,16.0,83,-99.99,,,-99.99,,2013-01-24 09:13:00,
2013-01-24 04:23:00,9.0,5.0,-100.00,NNW,340,8.0,15.0,83,-99.99,,,-99.99,,2013-01-24 09:23:00,
2013-01-24 04:33:00,9.0,5.0,-100.00,NNW,335,6.0,11.0,84,-99.99,,,-99.99,,2013-01-24 09:33:00,
2013-01-24 04:43:00,9.0,5.0,-100.00,NNW,335,6.0,11.0,84,-99.99,,,-99.99,,2013-01-24 09:43:00,
2013-01-24 05:03:00,9.0,5.0,-100.00,North,355,9.0,14.0,84,-99.99,,,-99.99,,2013-01-24 10:03:00,
2013-01-24 05:12:00,9.0,5.0,-100.00,North,355,9.0,14.0,84,-99.99,,,-99.99,,2013-01-24 10:12:00,
2013-01-24 05:23:00,9.0,5.0,-100.00,NNW,340,6.0,14.0,85,-99.99,,,-99.99,,2013-01-24 10:23:00,
2013-01-24 05:33:00,9.0,5.0,-100.00,NNW,330,8.0,14.0,86,-99.99,,,-99.99,,2013-01-24 10:33:00,
2013-01-24 05:43:00,9.0,5.0,-100.00,NNW,330,8.0,14.0,86,-99.99,,,-99.99,,2013-01-24 10:43:00,
2013-01-24 05:52:00,8.0,4.0,-100.00,NNW,330,13.0,17.0,84,-99.99,,,-99.99,,2013-01-24 10:52:00,
2013-01-24 06:03:00,8.0,4.0,-100.00,NNW,345,9.0,15.0,84,-99.99,,,-99.99,,2013-01-24 11:03:00,
2013-01-24 06:12:00,8.0,4.0,-100.00,NNW,345,9.0,15.0,84,-99.99,,,-99.99,,2013-01-24 11:12:00,
2013-01-24 06:23:00,8.0,4.0,-100.00,NW,320,10.0,16.0,83,-99.99,,,-99.99,,2013-01-24 11:23:00,
2013-01-24 06:33:00,7.0,3.0,-100.00,NW,305,6.0,12.0,83,-99.99,,,-99.99,,2013-01-24 11:33:00,
2013-01-24 06:43:00,7.0,3.0,-100.00,NW,305,6.0,12.0,83,-99.99,,,-99.99,,2013-01-24 11:43:00,
2013-01-24 06:53:00,6.0,1.0,-100.00,NW,320,10.0,14.0,82,-99.99,,,-99.99,,2013-01-24 11:53:00,
2013-01-24 07:03:00,5.0,0.0,-100.00,NW,315,8.0,14.0,81,-99.99,,,-99.99,,2013-01-24 12:03:00,
2013-01-24 07:12:00,5.0,0.0,-100.00,NW,315,8.0,14.0,81,-99.99,,,-99.99,,2013-01-24 12:12:00,
2013-01-24 07:23:00,4.0,0.0,-100.00,NNW,330,8.0,14.0,80,-99.99,,,-99.99,,2013-01-24 12:23:00,
2013-01-24 07:33:00,4.0,-1.0,-100.00,NNW,330,10.0,16.0,79,-99.99,,,-99.99,,2013-01-24 12:33:00,
2013-01-24 07:43:00,4.0,-1.0,-100.00,NNW,330,10.0,16.0,79,-99.99,,,-99.99,,2013-01-24 12:43:00,
2013-01-24 07:53:00,4.0,-1.0,-100.00,NNW,340,9.0,16.0,77,-99.99,,,-99.99,,2013-01-24 12:53:00,
2013-01-24 08:03:00,4.0,-2.0,-100.00,NNW,330,6.0,14.0,78,-99.99,,,-99.99,,2013-01-24 13:03:00,
2013-01-24 08:13:00,4.0,-2.0,-100.00,NNW,330,6.0,14.0,78,-99.99,,,-99.99,,2013-01-24 13:13:00,
2013-01-24 08:23:00,3.0,-2.0,-100.00,NNW,345,6.0,11.0,78,-99.99,,,-99.99,,2013-01-24 13:23:00,
2013-01-24 08:33:00,2.0,-3.0,-100.00,NNW,335,5.0,11.0,78,-99.99,,,-99.99,,2013-01-24 13:33:00,
2013-01-24 08:43:00,2.0,-3.0,-100.00,NNW,335,5.0,11.0,78,-99.99,,,-99.99,,2013-01-24 13:43:00,
2013-01-24 08:53:00,2.0,-3.0,-100.00,NNW,345,4.0,11.0,78,-99.99,,,-99.99,,2013-01-24 13:53:00,
2013-01-24 09:03:00,2.0,-3.0,-100.00,NW,325,4.0,9.0,78,-99.99,,,-99.99,,2013-01-24 14:03:00,
2013-01-24 09:12:00,2.0,-3.0,-100.00,NW,325,4.0,9.0,78,-99.99,,,-99.99,,2013-01-24 14:12:00,
2013-01-24 09:23:00,2.0,-3.0,-100.00,North,350,6.0,10.0,78,-99.99,,,-99.99,,2013-01-24 14:23:00,
2013-01-24 09:33:00,3.0,-3.0,-100.00,NNW,335,6.0,11.0,76,-99.99,,,-99.99,,2013-01-24 14:33:00,
2013-01-24 09:43:00,3.0,-3.0,-100.00,NNW,335,6.0,11.0,76,-99.99,,,-99.99,,2013-01-24 14:43:00,
2013-01-24 09:53:00,4.0,-3.0,-100.00,North,350,6.0,14.0,74,-99.99,,,-99.99,,2013-01-24 14:53:00,
2013-01-24 10:03:00,4.0,-3.0,-100.00,NNW,335,6.0,10.0,72,-99.99,,,-99.99,,2013-01-24 15:03:00,
2013-01-24 10:12:00,4.0,-3.0,-100.00,NNW,335,6.0,10.0,72,-99.99,,,-99.99,,2013-01-24 15:12:00,
2013-01-24 10:23:00,5.0,-2.0,-100.00,NNW,345,7.0,13.0,71,-99.99,,,-99.99,,2013-01-24 15:23:00,
2013-01-24 10:33:00,6.0,-2.0,-100.00,North,350,7.0,15.0,70,-99.99,,,-99.99,,2013-01-24 15:33:00,
2013-01-24 10:43:00,6.0,-2.0,-100.00,North,350,7.0,15.0,70,-99.99,,,-99.99,,2013-01-24 15:43:00,
2013-01-24 10:53:00,7.0,-1.0,-100.00,NNW,340,9.0,14.0,69,-99.99,,,-99.99,,2013-01-24 15:53:00,
2013-01-24 11:03:00,7.0,-1.0,-100.00,NNW,345,11.0,15.0,68,-99.99,,,-99.99,,2013-01-24 16:03:00,
2013-01-24 11:12:00,7.0,-1.0,-100.00,NNW,345,11.0,15.0,68,-99.99,,,-99.99,,2013-01-24 16:12:00,
2013-01-24 11:20:00,9.0,-1.0,-100.00,NNW,335,8.0,11.0,62,-99.99,,,-99.99,,2013-01-24 16:20:00,
2013-01-24 11:23:00,8.0,-1.0,-100.00,NW,315,11.0,16.0,66,-99.99,,,-99.99,,2013-01-24 16:23:00,
2013-01-24 11:33:00,8.0,-1.0,-100.00,NNW,345,10.0,14.0,65,-99.99,,,-99.99,,2013-01-24 16:33:00,
2013-01-24 11:42:00,8.0,-1.0,-100.00,NNW,345,10.0,14.0,65,-99.99,,,-99.99,,2013-01-24 16:42:00,
2013-01-24 12:02:00,9.0,-1.0,-100.00,NNW,335,8.0,11.0,62,-99.99,,,-99.99,,2013-01-24 17:02:00,
2013-01-24 12:12:00,9.0,-1.0,-100.00,NNW,335,8.0,11.0,62,-99.99,,,-99.99,,2013-01-24 17:12:00,
2013-01-24 12:32:00,11.0,0.0,-100.00,North,350,5.0,11.0,60,-99.99,,,-99.99,,2013-01-24 17:32:00,
2013-01-24 12:42:00,11.0,0.0,-100.00,North,350,5.0,11.0,60,-99.99,,,-99.99,,2013-01-24 17:42:00,
2013-01-24 12:52:00,12.0,0.0,-100.00,NNW,335,4.0,9.0,59,-99.99,,,-99.99,,2013-01-24 17:52:00,
2013-01-24 13:02:00,12.0,0.0,-100.00,NW,315,7.0,11.0,58,-99.99,,,-99.99,,2013-01-24 18:02:00,
2013-01-24 13:12:00,12.0,0.0,-100.00,NW,315,7.0,11.0,58,-99.99,,,-99.99,,2013-01-24 18:12:00,
2013-01-24 13:22:00,12.0,-1.0,-100.00,WNW,290,4.0,8.0,55,-99.99,,,-99.99,,2013-01-24 18:22:00,
2013-01-24 13:33:00,13.0,-1.0,-100.00,WNW,300,5.0,9.0,54,-99.99,,,-99.99,,2013-01-24 18:33:00,
2013-01-24 13:42:00,13.0,-1.0,-100.00,WNW,300,5.0,9.0,54,-99.99,,,-99.99,,2013-01-24 18:42:00,
2013-01-24 13:52:00,13.0,-1.0,-100.00,WSW,245,4.0,6.0,53,-99.99,,,-99.99,,2013-01-24 18:52:00,
2013-01-24 14:02:00,14.0,-1.0,-100.00,West,280,4.0,6.0,50,-99.99,,,-99.99,,2013-01-24 19:02:00,
2013-01-24 14:12:00,14.0,-1.0,-100.00,West,280,4.0,6.0,50,-99.99,,,-99.99,,2013-01-24 19:12:00,
2013-01-24 14:22:00,15.0,0.0,-100.00,North,355,2.0,5.0,52,-99.99,,,-99.99,,2013-01-24 19:22:00,
2013-01-24 14:33:00,15.0,-1.0,-100.00,West,275,4.0,7.0,50,-99.99,,,-99.99,,2013-01-24 19:33:00,
2013-01-24 14:42:00,15.0,-1.0,-100.00,West,275,4.0,7.0,50,-99.99,,,-99.99,,2013-01-24 19:42:00,
2013-01-24 14:52:00,16.0,0.0,-100.00,West,275,2.0,9.0,50,-99.99,,,-99.99,,2013-01-24 19:52:00,
2013-01-24 15:02:00,16.0,0.0,-100.00,West,275,2.0,9.0,50,-99.99,,,-99.99,,2013-01-24 20:02:00,
2013-01-24 15:22:00,17.0,1.0,-100.00,WNW,290,4.0,9.0,49,-99.99,,,-99.99,,2013-01-24 20:22:00,
2013-01-24 15:32:00,16.0,-1.0,-100.00,WNW,285,8.0,14.0,48,-99.99,,,-99.99,,2013-01-24 20:32:00,
2013-01-24 15:42:00,16.0,-1.0,-100.00,WNW,285,8.0,14.0,48,-99.99,,,-99.99,,2013-01-24 20:42:00,
2013-01-24 15:52:00,16.0,-1.0,-100.00,WSW,240,9.0,13.0,46,-99.99,,,-99.99,,2013-01-24 20:52:00,
2013-01-24 16:02:00,15.0,-2.0,-100.00,WNW,285,10.0,14.0,46,-99.99,,,-99.99,,2013-01-24 21:02:00,
2013-01-24 16:12:00,15.0,-2.0,-100.00,WNW,285,10.0,14.0,46,-99.99,,,-99.99,,2013-01-24 21:12:00,
2013-01-24 16:22:00,17.0,-1.0,-100.00,West,280,5.0,11.0,44,-99.99,,,-99.99,,2013-01-24 21:22:00,
2013-01-24 16:33:00,16.0,-2.0,-100.00,West,280,7.0,10.0,45,-99.99,,,-99.99,,2013-01-24 21:33:00,
2013-01-24 16:43:00,16.0,-2.0,-100.00,West,280,7.0,10.0,45,-99.99,,,-99.99,,2013-01-24 21:43:00,
2013-01-24 16:52:00,16.0,-1.0,-100.00,WSW,240,4.0,9.0,46,-99.99,,,-99.99,,2013-01-24 21:52:00,
2013-01-24 17:03:00,15.0,-1.0,-100.00,SW,230,4.0,12.0,47,-99.99,,,-99.99,,2013-01-24 22:03:00,
2013-01-24 17:12:00,15.0,-1.0,-100.00,SW,230,4.0,12.0,47,-99.99,,,-99.99,,2013-01-24 22:12:00,
2013-01-24 17:22:00,15.0,-1.0,-100.00,SW,215,6.0,9.0,49,-99.99,,,-99.99,,2013-01-24 22:22:00,
2013-01-24 17:32:00,15.0,0.0,-100.00,SW,225,5.0,10.0,51,-99.99,,,-99.99,,2013-01-24 22:32:00,
2013-01-24 17:42:00,15.0,0.0,-100.00,SW,225,5.0,10.0,51,-99.99,,,-99.99,,2013-01-24 22:42:00,
2013-01-24 17:52:00,15.0,0.0,-100.00,SW,225,4.0,9.0,51,-99.99,,,-99.99,,2013-01-24 22:52:00,
2013-01-24 18:02:00,14.0,0.0,-100.00,SW,225,4.0,9.0,52,-99.99,,,-99.99,,2013-01-24 23:02:00,
2013-01-24 18:12:00,14.0,0.0,-100.00,SW,225,4.0,9.0,52,-99.99,,,-99.99,,2013-01-24 23:12:00,
2013-01-24 18:22:00,14.0,-1.0,-100.00,SSW,210,2.0,6.0,52,-99.99,,,-99.99,,2013-01-24 23:22:00,
2013-01-24 18:32:00,13.0,1.0,-100.00,SSW,195,3.0,6.0,56,-99.99,,,-99.99,,2013-01-24 23:32:00,
2013-01-24 18:42:00,13.0,1.0,-100.00,SSW,195,3.0,6.0,56,-99.99,,,-99.99,,2013-01-24 23:42:00,
2013-01-24 18:52:00,13.0,0.0,-100.00,SW,225,4.0,6.0,55,-99.99,,,-99.99,,2013-01-24 23:52:00,
2013-01-24 19:02:00,13.0,0.0,-100.00,WSW,240,4.0,7.0,55,-99.99,,,-99.99,,2013-01-25 00:02:00,
2013-01-24 19:12:00,13.0,0.0,-100.00,WSW,240,4.0,7.0,55,-99.99,,,-99.99,,2013-01-25 00:12:00,
2013-01-24 19:22:00,12.0,0.0,-100.00,SW,220,3.0,4.0,57,-99.99,,,-99.99,,2013-01-25 00:22:00,
2013-01-24 19:32:00,12.0,0.0,-100.00,SW,220,3.0,4.0,57,-99.99,,,-99.99,,2013-01-25 00:32:00,
2013-01-24 19:42:00,12.0,0.0,-100.00,SW,220,3.0,4.0,57,-99.99,,,-99.99,,2013-01-25 00:42:00,
2013-01-24 19:52:00,12.0,0.0,-100.00,SW,215,2.0,4.0,58,-99.99,,,-99.99,,2013-01-25 00:52:00,
2013-01-24 20:02:00,12.0,1.0,-100.00,South,180,1.0,4.0,60,-99.99,,,-99.99,,2013-01-25 01:02:00,
2013-01-24 20:12:00,12.0,1.0,-100.00,South,180,1.0,4.0,60,-99.99,,,-99.99,,2013-01-25 01:12:00,
2013-01-24 20:22:00,12.0,2.0,-100.00,South,180,2.0,4.0,64,-99.99,,,-99.99,,2013-01-25 01:22:00,
2013-01-24 20:32:00,11.0,2.0,-100.00,South,170,1.0,4.0,65,-99.99,,,-99.99,,2013-01-25 01:32:00,
2013-01-24 20:42:00,11.0,2.0,-100.00,South,170,1.0,4.0,65,-99.99,,,-99.99,,2013-01-25 01:42:00,
2013-01-24 20:52:00,11.0,2.0,-100.00,South,170,3.0,4.0,66,-99.99,,,-99.99,,2013-01-25 01:52:00,
2013-01-24 21:02:00,11.0,3.0,-100.00,SSE,165,4.0,5.0,68,-99.99,,,-99.99,,2013-01-25 02:02:00,
2013-01-24 21:11:00,11.0,3.0,-100.00,SSE,165,4.0,5.0,68,-99.99,,,-99.99,,2013-01-25 02:11:00,
2013-01-24 21:20:00,12.0,4.0,-100.00,South,190,4.0,6.0,70,-99.99,,,-99.99,,2013-01-25 02:20:00,
2013-01-24 21:22:00,11.0,3.0,-100.00,South,170,4.0,6.0,68,-99.99,,,-99.99,,2013-01-25 02:22:00,
2013-01-24 21:32:00,11.0,4.0,-100.00,South,170,5.0,8.0,70,-99.99,,,-99.99,,2013-01-25 02:32:00,
2013-01-24 21:42:00,11.0,4.0,-100.00,South,170,5.0,8.0,70,-99.99,,,-99.99,,2013-01-25 02:42:00,
2013-01-24 21:52:00,12.0,4.0,-100.00,South,185,3.0,6.0,70,-99.99,,,-99.99,,2013-01-25 02:52:00,
2013-01-24 22:02:00,12.0,4.0,-100.00,South,190,4.0,6.0,70,-99.99,,,-99.99,,2013-01-25 03:02:00,
2013-01-24 22:12:00,12.0,4.0,-100.00,South,190,4.0,6.0,70,-99.99,,,-99.99,,2013-01-25 03:12:00,
2013-01-24 22:33:00,12.0,4.0,-100.00,SSW,205,6.0,10.0,71,-99.99,,,-99.99,,2013-01-25 03:33:00,
2013-01-24 22:42:00,12.0,4.0,-100.00,SSW,205,6.0,10.0,71,-99.99,,,-99.99,,2013-01-25 03:42:00,
2013-01-24 22:52:00,12.0,5.0,-100.00,SSW,200,5.0,9.0,72,-99.99,,,-99.99,,2013-01-25 03:52:00,
2013-01-24 23:02:00,12.0,5.0,-100.00,SSW,205,4.0,8.0,72,-99.99,,,-99.99,,2013-01-25 04:02:00,
2013-01-24 23:12:00,12.0,5.0,-100.00,SSW,205,4.0,8.0,72,-99.99,,,-99.99,,2013-01-25 04:12:00,
2013-01-24 23:22:00,12.0,4.0,-100.00,South,190,4.0,8.0,71,-99.99,,,-99.99,,2013-01-25 04:22:00,
2013-01-24 23:32:00,12.0,4.0,-100.00,SSW,200,5.0,11.0,70,-99.99,,,-99.99,,2013-01-25 04:32:00,
2013-01-24 23:42:00,12.0,4.0,-100.00,SSW,200,5.0,11.0,70,-99.99,,,-99.99,,2013-01-25 04:42:00,
2013-01-24 23:51:00,12.0,4.0,-100.00,SSW,205,4.0,10.0,70,-99.99,,,-99.99,,2013-01-25 04:51:00,